Flight Track Log - Related Links

Times and Time Zones

All times are in EDT time to prevent confusion due to time zone crossing. See the PDT4314 flight status page for this flight to view local times or setup timezone preferences in your user account.

Time Position Orientation Groundspeed Altitude Reporting Facility
EDT Latitude Longitude Course Direction KTS MPH feet Rate Location/Type
Tue 04:19:32 PM 39.9000 -75.2333 288° West 120 138 500  Level Philadelphia TRACON
Tue 04:20:45 PM 39.9167 -75.3000 288° West 153 176 2,500 1,714 Climbing Philadelphia TRACON
Tue 04:21:45 PM 39.9333 -75.3500 294° West 135 155 4,300 1,750 Climbing Philadelphia TRACON
Tue 04:22:45 PM 39.9333 -75.3833 270° West 128 147 6,000 1,667 Climbing Philadelphia TRACON
Tue 04:23:51 PM 39.9333 -75.4333 270° West 111 128 7,800 1,095 Climbing Philadelphia TRACON
Tue 04:24:51 PM 39.9667 -75.4667 323° Northwest 175 201 8,300 527 Climbing Philadelphia TRACON
Tue 04:25:22 PM 39.9931 -75.4636 North 200 230 8,600 462 Climbing New York Center
Tue 04:26:22 PM 40.0386 -75.4750 349° North 195 224 9,000 850 Climbing New York Center
Tue 04:27:22 PM 40.0875 -75.5000 339° North 177 204 10,300 1,100 Climbing New York Center
Tue 04:28:22 PM 40.1261 -75.5217 337° Northwest 170 196 11,200 850 Climbing New York Center
Tue 04:29:22 PM 40.1756 -75.5386 345° North 165 190 12,000 400 Climbing New York Center
Tue 04:30:22 PM 40.2225 -75.5608 340° North 182 209 12,000 500 Level New York Center
Tue 04:31:22 PM 40.2672 -75.5939 331° Northwest 190 219 13,000 950 Climbing New York Center
Tue 04:32:22 PM 40.3136 -75.6297 330° Northwest 181 208 13,900 500 Climbing New York Center
Tue 04:33:22 PM 40.3558 -75.6681 325° Northwest 181 208 14,000 50 Climbing New York Center
Tue 04:34:22 PM 40.4019 -75.7122 324° Northwest 199 229 14,000  Level New York Center
Tue 04:35:22 PM 40.4483 -75.7483 329° Northwest 213 245 14,000  Level New York Center
Tue 04:36:22 PM 40.4983 -75.7983 323° Northwest 213 245 14,000  Level New York Center
Tue 04:37:22 PM 40.5567 -75.8464 328° Northwest 218 251 14,000  Level New York Center
Tue 04:38:22 PM 40.6092 -75.8858 330° Northwest 218 251 14,000  Level New York Center
Tue 04:39:22 PM 40.6592 -75.9306 326° Northwest 218 251 14,000  Level New York Center
Tue 04:40:22 PM 40.6994 -75.9664 326° Northwest 218 251 14,000  Level New York Center
Tue 04:41:22 PM 40.7572 -76.0228 324° Northwest 213 245 14,000  Level New York Center
Tue 04:42:22 PM 40.8097 -76.0625 330° Northwest 213 245 14,000  Level New York Center
Tue 04:43:22 PM 40.8619 -76.1078 327° Northwest 218 251 14,000  Level New York Center
Tue 04:44:22 PM 40.9058 -76.1497 324° Northwest 218 251 14,000  Level New York Center
Tue 04:45:22 PM 40.9622 -76.1953 329° Northwest 218 251 14,000  Level New York Center
Tue 04:46:22 PM 41.0169 -76.2272 336° Northwest 213 245 14,000  Level New York Center
Tue 04:47:22 PM 41.0781 -76.2100 12° North 220 253 14,000  Level New York Center
Tue 04:48:22 PM 41.1511 -76.2103 360° North 237 273 14,000  Level New York Center
Tue 04:49:22 PM 41.2158 -76.2047 North 237 273 14,000  Level New York Center
Tue 04:50:22 PM 41.2828 -76.1961 North 237 273 14,000  Level New York Center
Tue 04:51:22 PM 41.3433 -76.1956 360° North 237 273 14,000 -100 Level New York Center
Tue 04:52:22 PM 41.4100 -76.1925 North 237 273 13,800 -550 Descending New York Center
Tue 04:53:22 PM 41.4894 -76.1881 North 242 278 12,900 -850 Descending New York Center
Tue 04:54:22 PM 41.5625 -76.1828 North 258 297 12,100 -800 Descending New York Center
Tue 04:55:22 PM 41.6336 -76.1775 North 258 297 11,300 -800 Descending New York Center
Tue 04:56:22 PM 41.6983 -76.1744 North 253 291 10,500 -1,000 Descending New York Center
Tue 04:57:22 PM 41.7703 -76.1494 15° North 259 298 9,300 -1,400 Descending New York Center
Tue 04:58:22 PM 41.8489 -76.1169 17° North 266 306 7,700 -1,550 Descending New York Center
Tue 04:59:22 PM 41.9142 -76.0972 13° North 254 292 6,200 -1,150 Descending New York Center
Tue 05:00:22 PM 41.9761 -76.0658 21° North 234 269 5,400 -650 Descending New York Center
Tue 05:01:22 PM 42.0294 -76.0339 24° Northeast 228 262 4,900 -700 Descending New York Center
Tue 05:02:22 PM 42.0894 -75.9939 26° Northeast 228 262 4,000 -750 Descending New York Center
Tue 05:03:22 PM 42.1325 -75.9664 25° Northeast 195 224 3,400 -750 Descending New York Center
Tue 05:04:22 PM 42.1664 -75.9494 20° North 154 177 2,500 -650 Descending New York Center
Tue 05:05:22 PM 42.2025 -75.9356 16° North 137 158 2,100 3,250 Descending New York Center
Tue 05:06:22 PM 42.2386 -75.9161 22° Northeast 137 158 9,000 3,450 Climbing New York Center
Tue 05:07:22 PM 42.2769 -75.8994 18° North 137 158 9,000  Level New York Center
Tue 05:08:22 PM 42.3131 -75.8797 22° Northeast 137 158 9,000  Level New York Center
Tue 05:09:22 PM 42.3281 -75.8725 20° North 137 158 9,000  Level New York Center

Login

Don't have an account? Register now (free) for customized features, flight alerts, and more!